sensor_id;sensor_type;location;lat;lon;timestamp;pressure;altitude;pressure_sealevel;temperature;humidity
29941;BME280;16801;53.562;10.038;2023-02-13T00:01:37;103773.72;;;11.32;83.57
29941;BME280;16801;53.562;10.038;2023-02-13T00:04:58;103775.16;;;11.59;82.76
29941;BME280;16801;53.562;10.038;2023-02-13T00:08:20;103780.56;;;11.59;81.95
29941;BME280;16801;53.562;10.038;2023-02-13T00:11:41;103780.31;;;11.45;82.51
29941;BME280;16801;53.562;10.038;2023-02-13T00:15:02;103780.69;;;11.56;83.01
29941;BME280;16801;53.562;10.038;2023-02-13T00:18:24;103771.78;;;11.54;81.79
29941;BME280;16801;53.562;10.038;2023-02-13T00:21:45;103775.09;;;11.21;83.24
29941;BME280;16801;53.562;10.038;2023-02-13T00:25:08;103772.66;;;11.54;82.22
29941;BME280;16801;53.562;10.038;2023-02-13T00:28:29;103778.78;;;11.58;81.89
29941;BME280;16801;53.562;10.038;2023-02-13T00:31:50;103769.69;;;11.01;83.71
29941;BME280;16801;53.562;10.038;2023-02-13T00:35:11;103767.59;;;10.88;85.42
29941;BME280;16801;53.562;10.038;2023-02-13T00:38:32;103762.47;;;10.82;85.10
29941;BME280;16801;53.562;10.038;2023-02-13T00:41:54;103771.16;;;11.28;83.11
29941;BME280;16801;53.562;10.038;2023-02-13T00:45:15;103761.38;;;11.26;83.83
29941;BME280;16801;53.562;10.038;2023-02-13T00:48:36;103769.31;;;11.29;83.32
29941;BME280;16801;53.562;10.038;2023-02-13T00:51:57;103770.66;;;11.00;84.10
29941;BME280;16801;53.562;10.038;2023-02-13T00:55:18;103763.59;;;11.37;82.61
29941;BME280;16801;53.562;10.038;2023-02-13T00:58:41;103766.03;;;11.22;82.96
29941;BME280;16801;53.562;10.038;2023-02-13T01:02:01;103768.69;;;11.24;82.64
29941;BME280;16801;53.562;10.038;2023-02-13T01:05:23;103766.94;;;11.42;82.02
29941;BME280;16801;53.562;10.038;2023-02-13T01:08:46;103768.06;;;10.35;86.12
29941;BME280;16801;53.562;10.038;2023-02-13T01:12:08;103768.81;;;10.81;85.07
29941;BME280;16801;53.562;10.038;2023-02-13T01:15:31;103755.13;;;11.05;83.02
29941;BME280;16801;53.562;10.038;2023-02-13T01:18:51;103763.59;;;11.16;83.14
29941;BME280;16801;53.562;10.038;2023-02-13T01:22:13;103765.56;;;10.53;84.93
29941;BME280;16801;53.562;10.038;2023-02-13T01:25:33;103755.31;;;11.21;82.60
29941;BME280;16801;53.562;10.038;2023-02-13T01:28:54;103756.59;;;11.51;81.39
29941;BME280;16801;53.562;10.038;2023-02-13T01:32:17;103763.03;;;10.90;83.72
29941;BME280;16801;53.562;10.038;2023-02-13T01:35:38;103754.78;;;10.73;84.37
29941;BME280;16801;53.562;10.038;2023-02-13T01:38:59;103745.28;;;10.84;83.24
29941;BME280;16801;53.562;10.038;2023-02-13T01:42:24;103747.84;;;11.07;83.17
29941;BME280;16801;53.562;10.038;2023-02-13T01:45:49;103738.47;;;10.76;83.61
29941;BME280;16801;53.562;10.038;2023-02-13T01:49:22;103732.78;;;11.02;82.24
29941;BME280;16801;53.562;10.038;2023-02-13T01:52:47;103735.19;;;11.08;82.53
29941;BME280;16801;53.562;10.038;2023-02-13T01:56:12;103727.31;;;11.42;81.00
29941;BME280;16801;53.562;10.038;2023-02-13T01:59:39;103731.19;;;10.78;82.89
29941;BME280;16801;53.562;10.038;2023-02-13T02:03:03;103732.91;;;11.19;81.78
29941;BME280;16801;53.562;10.038;2023-02-13T02:06:35;103731.91;;;10.81;81.96
29941;BME280;16801;53.562;10.038;2023-02-13T02:09:59;103725.22;;;10.90;82.51
29941;BME280;16801;53.562;10.038;2023-02-13T02:13:21;103727.06;;;10.69;82.94
29941;BME280;16801;53.562;10.038;2023-02-13T02:16:44;103717.13;;;10.50;82.83
29941;BME280;16801;53.562;10.038;2023-02-13T02:20:16;103710.59;;;10.55;83.17
29941;BME280;16801;53.562;10.038;2023-02-13T02:23:57;103716.34;;;10.68;81.43
29941;BME280;16801;53.562;10.038;2023-02-13T02:27:47;103715.84;;;10.58;81.57
29941;BME280;16801;53.562;10.038;2023-02-13T02:31:44;103715.59;;;10.84;79.92
29941;BME280;16801;53.562;10.038;2023-02-13T02:35:21;103716.28;;;10.49;81.79
29941;BME280;16801;53.562;10.038;2023-02-13T02:38:57;103720.50;;;10.75;80.00
29941;BME280;16801;53.562;10.038;2023-02-13T02:42:27;103718.09;;;10.89;79.17
29941;BME280;16801;53.562;10.038;2023-02-13T02:45:53;103713.75;;;10.85;79.53
29941;BME280;16801;53.562;10.038;2023-02-13T02:49:18;103725.28;;;10.68;79.14
29941;BME280;16801;53.562;10.038;2023-02-13T02:53:06;103717.84;;;10.33;80.90
29941;BME280;16801;53.562;10.038;2023-02-13T02:56:37;103717.81;;;10.55;80.34
29941;BME280;16801;53.562;10.038;2023-02-13T03:00:01;103714.78;;;10.62;80.34
29941;BME280;16801;53.562;10.038;2023-02-13T03:03:40;103703.13;;;10.62;79.94
29941;BME280;16801;53.562;10.038;2023-02-13T03:07:19;103707.28;;;10.69;78.85
29941;BME280;16801;53.562;10.038;2023-02-13T03:10:41;103703.16;;;10.60;80.02
29941;BME280;16801;53.562;10.038;2023-02-13T03:14:20;103701.25;;;10.64;79.13
29941;BME280;16801;53.562;10.038;2023-02-13T03:17:41;103712.63;;;10.90;78.02
29941;BME280;16801;53.562;10.038;2023-02-13T03:21:26;103715.03;;;10.96;77.72
29941;BME280;16801;53.562;10.038;2023-02-13T03:25:16;103712.78;;;11.06;77.41
29941;BME280;16801;53.562;10.038;2023-02-13T03:28:53;103721.41;;;11.14;77.06
29941;BME280;16801;53.562;10.038;2023-02-13T03:32:39;103706.28;;;10.51;78.44
29941;BME280;16801;53.562;10.038;2023-02-13T03:36:06;103724.06;;;10.95;77.31
29941;BME280;16801;53.562;10.038;2023-02-13T03:43:21;103725.16;;;10.51;79.99
29941;BME280;16801;53.562;10.038;2023-02-13T03:46:46;103723.63;;;10.86;78.69
29941;BME280;16801;53.562;10.038;2023-02-13T03:50:09;103717.84;;;10.33;79.89
29941;BME280;16801;53.562;10.038;2023-02-13T03:53:32;103720.84;;;10.67;79.68
29941;BME280;16801;53.562;10.038;2023-02-13T03:56:55;103720.59;;;10.73;79.69
29941;BME280;16801;53.562;10.038;2023-02-13T04:00:38;103728.72;;;11.12;77.90
29941;BME280;16801;53.562;10.038;2023-02-13T04:04:05;103721.88;;;11.23;76.88
29941;BME280;16801;53.562;10.038;2023-02-13T04:07:27;103714.00;;;11.38;76.58
29941;BME280;16801;53.562;10.038;2023-02-13T04:10:53;103720.38;;;11.37;75.46
29941;BME280;16801;53.562;10.038;2023-02-13T04:14:19;103722.53;;;11.28;75.76
29941;BME280;16801;53.562;10.038;2023-02-13T04:17:45;103718.91;;;11.48;74.61
29941;BME280;16801;53.562;10.038;2023-02-13T04:21:08;103724.00;;;10.77;76.55
29941;BME280;16801;53.562;10.038;2023-02-13T04:24:29;103726.00;;;11.12;76.12
29941;BME280;16801;53.562;10.038;2023-02-13T04:27:50;103716.00;;;11.34;73.81
29941;BME280;16801;53.562;10.038;2023-02-13T04:31:11;103719.69;;;10.53;76.41
29941;BME280;16801;53.562;10.038;2023-02-13T04:34:33;103714.78;;;10.82;75.77
29941;BME280;16801;53.562;10.038;2023-02-13T04:37:54;103718.47;;;11.20;74.53
29941;BME280;16801;53.562;10.038;2023-02-13T04:41:15;103718.38;;;11.21;74.38
29941;BME280;16801;53.562;10.038;2023-02-13T04:44:36;103720.78;;;11.27;73.72
29941;BME280;16801;53.562;10.038;2023-02-13T04:47:57;103719.22;;;11.42;73.45
29941;BME280;16801;53.562;10.038;2023-02-13T04:51:20;103720.72;;;11.68;72.62
29941;BME280;16801;53.562;10.038;2023-02-13T04:54:40;103718.53;;;11.56;71.17
29941;BME280;16801;53.562;10.038;2023-02-13T04:58:01;103717.00;;;11.50;72.12
29941;BME280;16801;53.562;10.038;2023-02-13T05:01:22;103721.13;;;11.59;70.67
29941;BME280;16801;53.562;10.038;2023-02-13T05:04:43;103724.31;;;11.48;71.04
29941;BME280;16801;53.562;10.038;2023-02-13T05:08:06;103719.34;;;11.39;70.70
29941;BME280;16801;53.562;10.038;2023-02-13T05:11:27;103714.53;;;11.46;71.35
29941;BME280;16801;53.562;10.038;2023-02-13T05:14:48;103714.69;;;11.61;71.06
29941;BME280;16801;53.562;10.038;2023-02-13T05:18:09;103705.50;;;11.65;70.68
29941;BME280;16801;53.562;10.038;2023-02-13T05:21:29;103717.56;;;11.77;69.97
29941;BME280;16801;53.562;10.038;2023-02-13T05:25:09;103719.22;;;11.98;68.77
29941;BME280;16801;53.562;10.038;2023-02-13T05:28:30;103710.44;;;11.56;69.90
29941;BME280;16801;53.562;10.038;2023-02-13T05:32:08;103721.69;;;11.65;69.54
29941;BME280;16801;53.562;10.038;2023-02-13T05:35:28;103718.53;;;11.76;68.67
29941;BME280;16801;53.562;10.038;2023-02-13T05:38:49;103724.13;;;11.71;68.46
29941;BME280;16801;53.562;10.038;2023-02-13T05:42:11;103722.16;;;11.75;68.17
29941;BME280;16801;53.562;10.038;2023-02-13T05:45:32;103717.50;;;11.78;67.86
29941;BME280;16801;53.562;10.038;2023-02-13T05:48:53;103716.84;;;11.73;68.52
29941;BME280;16801;53.562;10.038;2023-02-13T05:52:14;103723.25;;;11.89;66.70
29941;BME280;16801;53.562;10.038;2023-02-13T05:55:35;103719.69;;;11.89;67.94
29941;BME280;16801;53.562;10.038;2023-02-13T05:58:57;103723.59;;;12.00;67.56
29941;BME280;16801;53.562;10.038;2023-02-13T06:02:18;103726.97;;;11.87;67.57
29941;BME280;16801;53.562;10.038;2023-02-13T06:05:39;103734.22;;;11.86;67.06
29941;BME280;16801;53.562;10.038;2023-02-13T06:09:00;103734.75;;;11.56;68.87
29941;BME280;16801;53.562;10.038;2023-02-13T06:12:21;103724.31;;;11.30;67.99
29941;BME280;16801;53.562;10.038;2023-02-13T06:15:44;103732.72;;;11.42;68.24
29941;BME280;16801;53.562;10.038;2023-02-13T06:19:05;103729.13;;;11.60;66.77
29941;BME280;16801;53.562;10.038;2023-02-13T06:22:26;103735.50;;;11.59;66.77
29941;BME280;16801;53.562;10.038;2023-02-13T06:25:47;103734.06;;;11.13;68.04
29941;BME280;16801;53.562;10.038;2023-02-13T06:29:08;103738.47;;;11.35;67.15
29941;BME280;16801;53.562;10.038;2023-02-13T06:32:31;103738.19;;;11.41;67.29
29941;BME280;16801;53.562;10.038;2023-02-13T06:35:51;103737.63;;;11.53;66.59
29941;BME280;16801;53.562;10.038;2023-02-13T06:39:13;103744.75;;;11.54;66.58
29941;BME280;16801;53.562;10.038;2023-02-13T06:42:33;103748.78;;;11.06;68.14
29941;BME280;16801;53.562;10.038;2023-02-13T06:45:54;103763.81;;;11.32;67.87
29941;BME280;16801;53.562;10.038;2023-02-13T06:49:16;103751.25;;;11.50;67.62
29941;BME280;16801;53.562;10.038;2023-02-13T06:52:37;103766.31;;;11.55;67.00
29941;BME280;16801;53.562;10.038;2023-02-13T06:55:58;103765.06;;;11.62;66.99
29941;BME280;16801;53.562;10.038;2023-02-13T06:59:19;103776.09;;;11.19;67.51
29941;BME280;16801;53.562;10.038;2023-02-13T07:02:40;103780.13;;;11.49;66.91
29941;BME280;16801;53.562;10.038;2023-02-13T07:06:02;103778.53;;;11.25;66.98
29941;BME280;16801;53.562;10.038;2023-02-13T07:09:23;103776.66;;;11.46;66.24
29941;BME280;16801;53.562;10.038;2023-02-13T07:12:44;103780.16;;;11.48;67.64
29941;BME280;16801;53.562;10.038;2023-02-13T07:16:05;103785.94;;;11.40;68.01
29941;BME280;16801;53.562;10.038;2023-02-13T07:19:26;103788.56;;;11.42;67.58
29941;BME280;16801;53.562;10.038;2023-02-13T07:22:48;103788.34;;;11.46;67.86
29941;BME280;16801;53.562;10.038;2023-02-13T07:26:09;103787.91;;;11.37;69.06
29941;BME280;16801;53.562;10.038;2023-02-13T07:29:30;103782.69;;;11.12;69.71
29941;BME280;16801;53.562;10.038;2023-02-13T07:32:51;103779.72;;;11.38;69.66
29941;BME280;16801;53.562;10.038;2023-02-13T07:36:12;103786.97;;;11.56;68.85
29941;BME280;16801;53.562;10.038;2023-02-13T07:39:34;103784.97;;;11.41;69.91
29941;BME280;16801;53.562;10.038;2023-02-13T07:42:59;103789.84;;;11.53;68.92
29941;BME280;16801;53.562;10.038;2023-02-13T07:46:20;103793.91;;;11.82;67.81
29941;BME280;16801;53.562;10.038;2023-02-13T07:49:41;103798.75;;;11.55;68.32
29941;BME280;16801;53.562;10.038;2023-02-13T07:53:03;103792.94;;;11.44;69.41
29941;BME280;16801;53.562;10.038;2023-02-13T07:56:25;103805.00;;;11.56;69.02
29941;BME280;16801;53.562;10.038;2023-02-13T07:59:46;103804.50;;;11.68;68.44
29941;BME280;16801;53.562;10.038;2023-02-13T08:03:10;103803.91;;;11.80;68.46
29941;BME280;16801;53.562;10.038;2023-02-13T08:06:31;103812.59;;;11.68;68.01
29941;BME280;16801;53.562;10.038;2023-02-13T08:09:52;103808.13;;;11.85;67.97
29941;BME280;16801;53.562;10.038;2023-02-13T08:13:32;103815.03;;;11.92;67.58
29941;BME280;16801;53.562;10.038;2023-02-13T08:16:54;103807.13;;;12.07;67.36
29941;BME280;16801;53.562;10.038;2023-02-13T08:20:15;103816.09;;;11.70;68.59
29941;BME280;16801;53.562;10.038;2023-02-13T08:23:36;103814.50;;;12.03;66.47
29941;BME280;16801;53.562;10.038;2023-02-13T08:26:57;103810.19;;;11.80;65.87
29941;BME280;16801;53.562;10.038;2023-02-13T08:30:19;103807.63;;;11.96;66.09
29941;BME280;16801;53.562;10.038;2023-02-13T08:33:40;103814.84;;;11.95;65.75
29941;BME280;16801;53.562;10.038;2023-02-13T08:37:01;103802.72;;;12.04;65.19
29941;BME280;16801;53.562;10.038;2023-02-13T08:40:22;103805.00;;;11.94;65.87
29941;BME280;16801;53.562;10.038;2023-02-13T08:43:43;103806.97;;;12.10;65.00
29941;BME280;16801;53.562;10.038;2023-02-13T08:47:06;103808.09;;;12.06;65.58
29941;BME280;16801;53.562;10.038;2023-02-13T08:50:27;103805.38;;;12.06;65.83
29941;BME280;16801;53.562;10.038;2023-02-13T08:53:47;103810.84;;;12.04;64.61
29941;BME280;16801;53.562;10.038;2023-02-13T08:57:08;103802.25;;;11.57;64.83
29941;BME280;16801;53.562;10.038;2023-02-13T09:00:29;103804.06;;;11.18;65.34
29941;BME280;16801;53.562;10.038;2023-02-13T09:03:52;103803.63;;;11.86;64.47
29941;BME280;16801;53.562;10.038;2023-02-13T09:07:13;103798.09;;;11.89;64.40
29941;BME280;16801;53.562;10.038;2023-02-13T09:10:34;103819.03;;;12.02;63.04
29941;BME280;16801;53.562;10.038;2023-02-13T09:13:54;103814.72;;;11.98;61.75
29941;BME280;16801;53.562;10.038;2023-02-13T09:17:15;103811.88;;;12.20;61.42
29941;BME280;16801;53.562;10.038;2023-02-13T09:20:39;103823.22;;;12.10;61.66
29941;BME280;16801;53.562;10.038;2023-02-13T09:24:00;103825.16;;;11.49;63.71
29941;BME280;16801;53.562;10.038;2023-02-13T09:27:21;103821.81;;;11.62;64.29
29941;BME280;16801;53.562;10.038;2023-02-13T09:30:41;103818.31;;;11.80;63.37
29941;BME280;16801;53.562;10.038;2023-02-13T09:34:03;103806.22;;;11.87;63.42
29941;BME280;16801;53.562;10.038;2023-02-13T09:37:25;103817.34;;;11.81;63.27
29941;BME280;16801;53.562;10.038;2023-02-13T09:40:51;103817.03;;;12.25;62.49
29941;BME280;16801;53.562;10.038;2023-02-13T09:44:15;103815.25;;;12.42;62.17
29941;BME280;16801;53.562;10.038;2023-02-13T09:47:46;103815.13;;;12.27;63.27
29941;BME280;16801;53.562;10.038;2023-02-13T09:51:13;103807.50;;;12.53;62.53
29941;BME280;16801;53.562;10.038;2023-02-13T09:54:35;103817.47;;;12.70;60.66
29941;BME280;16801;53.562;10.038;2023-02-13T09:57:59;103803.34;;;12.46;59.76
29941;BME280;16801;53.562;10.038;2023-02-13T10:01:29;103804.94;;;12.50;59.25
29941;BME280;16801;53.562;10.038;2023-02-13T10:05:00;103801.06;;;12.37;60.62
29941;BME280;16801;53.562;10.038;2023-02-13T10:08:33;103808.25;;;12.38;60.14
29941;BME280;16801;53.562;10.038;2023-02-13T10:12:11;103808.16;;;12.75;59.84
29941;BME280;16801;53.562;10.038;2023-02-13T10:15:38;103807.13;;;12.78;59.13
29941;BME280;16801;53.562;10.038;2023-02-13T10:19:04;103803.53;;;12.06;59.12
29941;BME280;16801;53.562;10.038;2023-02-13T10:22:35;103806.47;;;12.20;60.48
29941;BME280;16801;53.562;10.038;2023-02-13T10:26:00;103803.47;;;12.62;59.48
29941;BME280;16801;53.562;10.038;2023-02-13T10:29:24;103798.16;;;12.42;59.80
29941;BME280;16801;53.562;10.038;2023-02-13T10:33:12;103796.28;;;12.61;59.06
29941;BME280;16801;53.562;10.038;2023-02-13T10:36:43;103803.72;;;12.74;58.43
29941;BME280;16801;53.562;10.038;2023-02-13T10:40:10;103801.28;;;12.68;58.68
29941;BME280;16801;53.562;10.038;2023-02-13T10:43:37;103799.88;;;12.78;58.82
29941;BME280;16801;53.562;10.038;2023-02-13T10:47:05;103804.66;;;12.91;58.18
29941;BME280;16801;53.562;10.038;2023-02-13T10:50:34;103806.16;;;12.96;58.11
29941;BME280;16801;53.562;10.038;2023-02-13T10:54:17;103796.84;;;12.67;57.66
29941;BME280;16801;53.562;10.038;2023-02-13T10:58:08;103793.44;;;12.28;58.41
29941;BME280;16801;53.562;10.038;2023-02-13T11:01:36;103787.59;;;12.54;57.69
29941;BME280;16801;53.562;10.038;2023-02-13T11:05:01;103794.75;;;12.72;59.04
29941;BME280;16801;53.562;10.038;2023-02-13T11:08:31;103787.75;;;12.68;57.70
29941;BME280;16801;53.562;10.038;2023-02-13T11:11:54;103790.72;;;12.64;58.51
29941;BME280;16801;53.562;10.038;2023-02-13T11:15:23;103787.38;;;12.93;57.85
29941;BME280;16801;53.562;10.038;2023-02-13T11:18:49;103784.94;;;13.06;57.86
29941;BME280;16801;53.562;10.038;2023-02-13T11:22:11;103779.00;;;12.98;58.76
29941;BME280;16801;53.562;10.038;2023-02-13T11:25:32;103789.13;;;12.60;59.26
29941;BME280;16801;53.562;10.038;2023-02-13T11:28:55;103779.56;;;12.87;59.72
29941;BME280;16801;53.562;10.038;2023-02-13T11:32:21;103768.09;;;12.99;59.54
29941;BME280;16801;53.562;10.038;2023-02-13T11:35:43;103768.06;;;11.56;62.23
29941;BME280;16801;53.562;10.038;2023-02-13T11:39:12;103772.28;;;11.82;62.50
29941;BME280;16801;53.562;10.038;2023-02-13T11:42:41;103762.63;;;12.14;62.62
29941;BME280;16801;53.562;10.038;2023-02-13T11:46:04;103768.91;;;12.67;60.53
29941;BME280;16801;53.562;10.038;2023-02-13T11:49:29;103776.13;;;12.83;60.32
29941;BME280;16801;53.562;10.038;2023-02-13T11:52:58;103780.63;;;12.84;59.74
29941;BME280;16801;53.562;10.038;2023-02-13T11:56:21;103784.13;;;12.87;59.29
29941;BME280;16801;53.562;10.038;2023-02-13T11:59:44;103788.25;;;12.94;59.41
29941;BME280;16801;53.562;10.038;2023-02-13T12:03:26;103774.09;;;12.89;59.23
29941;BME280;16801;53.562;10.038;2023-02-13T12:07:00;103767.81;;;12.18;62.00
29941;BME280;16801;53.562;10.038;2023-02-13T12:10:23;103765.25;;;11.96;62.76
29941;BME280;16801;53.562;10.038;2023-02-13T12:13:44;103765.63;;;12.08;62.79
29941;BME280;16801;53.562;10.038;2023-02-13T12:17:08;103757.00;;;11.81;63.11
29941;BME280;16801;53.562;10.038;2023-02-13T12:20:42;103753.16;;;11.68;64.87
29941;BME280;16801;53.562;10.038;2023-02-13T12:24:19;103757.69;;;11.08;66.48
29941;BME280;16801;53.562;10.038;2023-02-13T12:27:50;103759.59;;;12.20;63.56
29941;BME280;16801;53.562;10.038;2023-02-13T12:31:28;103759.56;;;11.84;63.19
29941;BME280;16801;53.562;10.038;2023-02-13T12:35:12;103753.22;;;12.21;62.28
29941;BME280;16801;53.562;10.038;2023-02-13T12:38:46;103753.72;;;11.74;64.16
29941;BME280;16801;53.562;10.038;2023-02-13T12:42:23;103750.41;;;10.90;67.08
29941;BME280;16801;53.562;10.038;2023-02-13T12:45:53;103741.19;;;11.35;65.95
29941;BME280;16801;53.562;10.038;2023-02-13T12:49:30;103741.34;;;12.06;63.51
29941;BME280;16801;53.562;10.038;2023-02-13T12:53:11;103739.63;;;11.86;64.55
29941;BME280;16801;53.562;10.038;2023-02-13T12:56:46;103737.22;;;11.23;65.62
29941;BME280;16801;53.562;10.038;2023-02-13T13:00:21;103747.22;;;11.78;65.26
29941;BME280;16801;53.562;10.038;2023-02-13T13:03:53;103743.13;;;11.88;64.91
29941;BME280;16801;53.562;10.038;2023-02-13T13:07:34;103742.25;;;11.88;64.77
29941;BME280;16801;53.562;10.038;2023-02-13T13:11:12;103738.84;;;12.20;63.31
29941;BME280;16801;53.562;10.038;2023-02-13T13:14:43;103735.84;;;11.52;64.52
29941;BME280;16801;53.562;10.038;2023-02-13T13:18:21;103737.84;;;11.85;64.09
29941;BME280;16801;53.562;10.038;2023-02-13T13:21:50;103737.78;;;12.23;63.57
29941;BME280;16801;53.562;10.038;2023-02-13T13:25:20;103742.75;;;11.96;62.60
29941;BME280;16801;53.562;10.038;2023-02-13T13:28:46;103742.38;;;12.03;63.76
29941;BME280;16801;53.562;10.038;2023-02-13T13:32:12;103737.41;;;11.18;65.97
29941;BME280;16801;53.562;10.038;2023-02-13T13:35:37;103734.56;;;11.97;64.47
29941;BME280;16801;53.562;10.038;2023-02-13T13:39:02;103729.00;;;12.36;63.28
29941;BME280;16801;53.562;10.038;2023-02-13T13:42:33;103727.31;;;13.02;61.76
29941;BME280;16801;53.562;10.038;2023-02-13T13:46:02;103723.69;;;11.99;61.71
29941;BME280;16801;53.562;10.038;2023-02-13T13:49:34;103714.19;;;12.26;61.56
29941;BME280;16801;53.562;10.038;2023-02-13T13:53:10;103711.22;;;12.31;60.52
29941;BME280;16801;53.562;10.038;2023-02-13T13:57:02;103715.13;;;12.25;60.92
29941;BME280;16801;53.562;10.038;2023-02-13T14:00:26;103719.06;;;12.01;61.07
29941;BME280;16801;53.562;10.038;2023-02-13T14:03:48;103719.38;;;11.95;60.31
29941;BME280;16801;53.562;10.038;2023-02-13T14:07:15;103721.97;;;12.15;60.92
29941;BME280;16801;53.562;10.038;2023-02-13T14:11:23;103729.31;;;12.30;59.72
29941;BME280;16801;53.562;10.038;2023-02-13T14:14:45;103732.09;;;12.46;59.12
29941;BME280;16801;53.562;10.038;2023-02-13T14:18:17;103722.72;;;12.53;58.26
29941;BME280;16801;53.562;10.038;2023-02-13T14:21:40;103725.78;;;12.11;59.35
29941;BME280;16801;53.562;10.038;2023-02-13T14:25:03;103719.91;;;12.20;59.71
29941;BME280;16801;53.562;10.038;2023-02-13T14:28:27;103721.25;;;12.12;59.62
29941;BME280;16801;53.562;10.038;2023-02-13T14:35:34;103718.06;;;12.03;60.43
29941;BME280;16801;53.562;10.038;2023-02-13T14:38:58;103724.56;;;12.17;60.55
29941;BME280;16801;53.562;10.038;2023-02-13T14:42:24;103725.56;;;12.16;59.67
29941;BME280;16801;53.562;10.038;2023-02-13T14:45:52;103729.72;;;12.04;59.21
29941;BME280;16801;53.562;10.038;2023-02-13T14:49:18;103730.69;;;11.66;60.21
29941;BME280;16801;53.562;10.038;2023-02-13T14:52:42;103718.84;;;11.87;59.40
29941;BME280;16801;53.562;10.038;2023-02-13T14:56:06;103713.38;;;11.88;59.35
29941;BME280;16801;53.562;10.038;2023-02-13T14:59:30;103719.28;;;11.96;60.75
29941;BME280;16801;53.562;10.038;2023-02-13T15:03:01;103717.13;;;11.86;60.30
29941;BME280;16801;53.562;10.038;2023-02-13T15:06:26;103710.22;;;11.60;60.68
29941;BME280;16801;53.562;10.038;2023-02-13T15:09:52;103708.88;;;11.89;59.65
29941;BME280;16801;53.562;10.038;2023-02-13T15:13:17;103705.91;;;11.56;61.11
29941;BME280;16801;53.562;10.038;2023-02-13T15:16:39;103701.28;;;11.78;61.14
29941;BME280;16801;53.562;10.038;2023-02-13T15:20:06;103701.63;;;11.71;60.25
29941;BME280;16801;53.562;10.038;2023-02-13T15:23:30;103702.50;;;11.53;60.34
29941;BME280;16801;53.562;10.038;2023-02-13T15:26:56;103705.31;;;11.31;60.95
29941;BME280;16801;53.562;10.038;2023-02-13T15:30:20;103705.22;;;11.14;61.16
29941;BME280;16801;53.562;10.038;2023-02-13T15:33:44;103711.03;;;11.62;60.66
29941;BME280;16801;53.562;10.038;2023-02-13T15:37:19;103705.50;;;11.65;60.74
29941;BME280;16801;53.562;10.038;2023-02-13T15:40:40;103698.69;;;11.57;61.10
29941;BME280;16801;53.562;10.038;2023-02-13T15:44:02;103705.13;;;11.54;62.24
29941;BME280;16801;53.562;10.038;2023-02-13T15:47:27;103696.78;;;11.59;60.89
29941;BME280;16801;53.562;10.038;2023-02-13T15:50:49;103689.91;;;11.72;60.49
29941;BME280;16801;53.562;10.038;2023-02-13T15:54:26;103694.81;;;11.62;61.03
29941;BME280;16801;53.562;10.038;2023-02-13T15:57:48;103685.84;;;11.62;61.56
29941;BME280;16801;53.562;10.038;2023-02-13T16:01:11;103684.91;;;11.44;61.08
29941;BME280;16801;53.562;10.038;2023-02-13T16:04:33;103685.31;;;11.54;60.50
29941;BME280;16801;53.562;10.038;2023-02-13T16:07:57;103679.31;;;11.28;62.03
29941;BME280;16801;53.562;10.038;2023-02-13T16:11:25;103672.59;;;11.18;62.10
29941;BME280;16801;53.562;10.038;2023-02-13T16:14:51;103678.91;;;11.38;61.33
29941;BME280;16801;53.562;10.038;2023-02-13T16:18:17;103674.97;;;11.45;60.89
29941;BME280;16801;53.562;10.038;2023-02-13T16:21:39;103675.31;;;11.18;61.16
29941;BME280;16801;53.562;10.038;2023-02-13T16:25:12;103673.78;;;11.32;62.24
29941;BME280;16801;53.562;10.038;2023-02-13T16:28:36;103674.31;;;11.40;61.83
29941;BME280;16801;53.562;10.038;2023-02-13T16:32:11;103669.50;;;11.46;61.12
29941;BME280;16801;53.562;10.038;2023-02-13T16:35:35;103673.22;;;11.44;60.68
29941;BME280;16801;53.562;10.038;2023-02-13T16:39:09;103675.41;;;11.73;60.17
29941;BME280;16801;53.562;10.038;2023-02-13T16:42:30;103680.72;;;11.37;62.00
29941;BME280;16801;53.562;10.038;2023-02-13T16:45:52;103678.19;;;11.71;60.10
29941;BME280;16801;53.562;10.038;2023-02-13T16:49:18;103680.19;;;11.68;60.48
29941;BME280;16801;53.562;10.038;2023-02-13T16:52:41;103676.56;;;11.49;60.15
29941;BME280;16801;53.562;10.038;2023-02-13T16:56:05;103679.50;;;11.44;60.58
29941;BME280;16801;53.562;10.038;2023-02-13T16:59:47;103682.47;;;11.57;59.73
29941;BME280;16801;53.562;10.038;2023-02-13T17:03:11;103671.91;;;11.52;60.19
29941;BME280;16801;53.562;10.038;2023-02-13T17:06:32;103677.00;;;11.40;60.85
29941;BME280;16801;53.562;10.038;2023-02-13T17:09:58;103686.38;;;11.51;59.97
29941;BME280;16801;53.562;10.038;2023-02-13T17:13:19;103675.81;;;11.08;59.95
29941;BME280;16801;53.562;10.038;2023-02-13T17:16:42;103684.75;;;11.47;59.39
29941;BME280;16801;53.562;10.038;2023-02-13T17:20:06;103685.41;;;11.34;59.51
29941;BME280;16801;53.562;10.038;2023-02-13T17:23:27;103688.56;;;11.62;59.23
29941;BME280;16801;53.562;10.038;2023-02-13T17:26:48;103689.56;;;11.59;59.33
29941;BME280;16801;53.562;10.038;2023-02-13T17:30:12;103679.47;;;11.63;58.35
29941;BME280;16801;53.562;10.038;2023-02-13T17:33:34;103685.41;;;11.52;58.93
29941;BME280;16801;53.562;10.038;2023-02-13T17:36:58;103690.72;;;11.54;59.04
29941;BME280;16801;53.562;10.038;2023-02-13T17:40:21;103697.09;;;11.53;59.34
29941;BME280;16801;53.562;10.038;2023-02-13T17:43:43;103692.13;;;11.44;60.30
29941;BME280;16801;53.562;10.038;2023-02-13T17:47:04;103694.19;;;11.57;58.94
29941;BME280;16801;53.562;10.038;2023-02-13T17:50:26;103697.72;;;11.58;59.36